createdAt,value
2022-12-04T00:00:15.277Z,99479.75
2022-12-04T00:02:46.888Z,99478.81
2022-12-04T00:05:18.601Z,99483.78
2022-12-04T00:07:50.897Z,99477.34
2022-12-04T00:10:23.645Z,99478.19
2022-12-04T00:12:55.330Z,99480.81
2022-12-04T00:15:27.458Z,99483.31
2022-12-04T00:18:00.190Z,99483.75
2022-12-04T00:20:31.813Z,99484.84
2022-12-04T00:23:03.599Z,99485.66
2022-12-04T00:25:40.714Z,99477.72
2022-12-04T00:28:12.859Z,99478.16
2022-12-04T00:30:47.601Z,99477.44
2022-12-04T00:33:20.496Z,99477.94
2022-12-04T00:36:04.037Z,99474.72
2022-12-04T00:38:37.736Z,99466.31
2022-12-04T00:41:14.508Z,99462.97
2022-12-04T00:43:47.521Z,99467.38
2022-12-04T00:46:21.750Z,99466.09
2022-12-04T00:48:59.199Z,99464.16
2022-12-04T00:51:34.212Z,99463.78
2022-12-04T00:54:05.876Z,99458.44
2022-12-04T00:56:37.507Z,99462.59
2022-12-04T00:59:10.876Z,99459.16
2022-12-04T01:01:42.607Z,99457.59
2022-12-04T01:04:15.326Z,99458.22
2022-12-04T01:06:47.284Z,99462.72
2022-12-04T01:09:19.998Z,99460.72
2022-12-04T01:11:53.683Z,99451.09
2022-12-04T01:14:25.585Z,99453.47
2022-12-04T01:16:57.304Z,99450.72
2022-12-04T01:19:28.997Z,99450.59
2022-12-04T01:22:04.073Z,99448.94
2022-12-04T01:24:35.708Z,99443.72
2022-12-04T01:27:07.506Z,99439.09
2022-12-04T01:29:39.118Z,99429.81
2022-12-04T01:32:10.777Z,99430.88
2022-12-04T01:34:42.458Z,99436.56
2022-12-04T01:37:14.058Z,99435.84
2022-12-04T01:39:45.672Z,99429.09
2022-12-04T01:42:17.316Z,99426.09
2022-12-04T01:45:30.598Z,99424.44
2022-12-04T01:48:30.927Z,99410.19
2022-12-04T01:51:21.079Z,99411.19
2022-12-04T01:53:56.232Z,99419.16
2022-12-04T01:56:43.694Z,99416.88
2022-12-04T01:59:19.444Z,99409.97
2022-12-04T02:02:02.738Z,99407.63
2022-12-04T02:04:35.499Z,99415.22
2022-12-04T02:07:07.108Z,99416.50
2022-12-04T02:09:40.867Z,99410.91
2022-12-04T02:12:32.708Z,99415.31
2022-12-04T02:15:25.806Z,99406.38
2022-12-04T02:17:57.660Z,99407.19
2022-12-04T02:20:37.036Z,99404.34
2022-12-04T02:23:48.129Z,99401.00
2022-12-04T02:26:25.708Z,99394.44
2022-12-04T02:29:09.727Z,99399.22
2022-12-04T02:31:50.983Z,99396.09
2022-12-04T02:34:43.941Z,99399.28
2022-12-04T02:37:24.265Z,99395.59
2022-12-04T02:40:14.740Z,99395.59
2022-12-04T02:43:00.052Z,99399.16
2022-12-04T02:45:38.078Z,99396.94
2022-12-04T02:48:13.360Z,99393.09
2022-12-04T02:50:47.000Z,99394.06
2022-12-04T02:53:24.652Z,99395.03
2022-12-04T02:56:03.451Z,99404.66
2022-12-04T02:58:41.830Z,99393.81
2022-12-04T03:01:24.209Z,99397.94
2022-12-04T03:04:27.264Z,99396.75
2022-12-04T03:07:10.729Z,99399.22
2022-12-04T03:09:47.643Z,99402.31
2022-12-04T03:12:43.591Z,99399.69
2022-12-04T03:15:26.002Z,99390.63
2022-12-04T03:18:16.528Z,99394.78
2022-12-04T03:20:54.169Z,99397.13
2022-12-04T03:23:36.032Z,99401.78
2022-12-04T03:26:16.869Z,99394.78
2022-12-04T03:29:32.205Z,99395.97
2022-12-04T03:32:13.441Z,99402.72
2022-12-04T03:35:04.119Z,99401.50
2022-12-04T03:37:49.524Z,99390.63
2022-12-04T03:40:41.864Z,99392.41
2022-12-04T03:43:45.364Z,99393.78
2022-12-04T03:46:50.231Z,99388.13
2022-12-04T03:49:40.136Z,99393.22
2022-12-04T03:52:22.299Z,99394.63
2022-12-04T03:55:05.377Z,99395.88
2022-12-04T03:57:44.148Z,99397.97
2022-12-04T04:00:21.463Z,99391.66
2022-12-04T04:03:07.521Z,99389.72
2022-12-04T04:05:45.022Z,99393.88
2022-12-04T04:08:26.787Z,99386.59
2022-12-04T04:11:21.429Z,99383.72
2022-12-04T04:14:20.977Z,99385.50
2022-12-04T04:17:17.985Z,99382.06
2022-12-04T04:20:22.124Z,99383.97
2022-12-04T04:23:16.820Z,99380.69
2022-12-04T04:25:56.836Z,99377.78
2022-12-04T04:28:37.958Z,99381.81
2022-12-04T04:31:31.091Z,99377.16
2022-12-04T04:34:32.618Z,99368.34
2022-12-04T04:37:10.222Z,99375.06
2022-12-04T04:39:55.647Z,99366.03
2022-12-04T04:42:40.808Z,99359.00
2022-12-04T04:45:45.315Z,99354.59
2022-12-04T04:48:23.589Z,99345.75
2022-12-04T04:51:00.123Z,99352.41
2022-12-04T04:53:45.808Z,99356.69
2022-12-04T04:56:20.515Z,99343.84
2022-12-04T04:58:55.135Z,99356.50
2022-12-04T05:01:28.687Z,99351.00
2022-12-04T05:04:01.256Z,99357.63
2022-12-04T05:06:35.979Z,99355.69
2022-12-04T05:09:07.512Z,99370.03
2022-12-04T05:11:39.394Z,99367.56
2022-12-04T05:14:13.771Z,99367.69
2022-12-04T05:16:45.441Z,99371.03
2022-12-04T05:19:38.876Z,99373.91
2022-12-04T05:22:10.494Z,99371.97
2022-12-04T05:24:42.043Z,99370.03
2022-12-04T05:27:14.110Z,99368.13
2022-12-04T05:29:46.150Z,99374.19
2022-12-04T05:32:17.816Z,99356.56
2022-12-04T05:34:51.019Z,99363.31
2022-12-04T05:37:23.457Z,99353.41
2022-12-04T05:39:57.494Z,99354.09
2022-12-04T05:42:29.222Z,99354.38
2022-12-04T05:45:00.823Z,99356.47
2022-12-04T05:47:44.686Z,99354.78
2022-12-04T05:50:16.451Z,99357.41
2022-12-04T05:52:50.941Z,99368.72
2022-12-04T05:55:22.616Z,99367.88
2022-12-04T05:57:54.203Z,99364.44
2022-12-04T06:00:26.423Z,99373.00
2022-12-04T06:02:58.441Z,99371.06
2022-12-04T06:05:32.591Z,99364.59
2022-12-04T06:08:04.383Z,99373.97
2022-12-04T06:10:36.008Z,99372.88
2022-12-04T06:13:08.071Z,99371.94
2022-12-04T06:15:42.674Z,99375.34
2022-12-04T06:18:14.382Z,99371.38
2022-12-04T06:20:46.148Z,99376.34
2022-12-04T06:23:20.911Z,99369.31
2022-12-04T06:25:52.320Z,99366.81
2022-12-04T06:28:23.884Z,99379.06
2022-12-04T06:30:55.453Z,99377.97
2022-12-04T06:33:27.073Z,99374.38
2022-12-04T06:36:08.660Z,99382.00
2022-12-04T06:38:40.927Z,99387.34
2022-12-04T06:41:14.735Z,99389.72
2022-12-04T06:43:46.548Z,99395.50
2022-12-04T06:46:22.242Z,99389.00
2022-12-04T06:48:55.613Z,99386.53
2022-12-04T06:51:29.962Z,99381.84
2022-12-04T06:54:02.629Z,99388.88
2022-12-04T06:56:34.482Z,99388.19
2022-12-04T06:59:06.118Z,99381.16
2022-12-04T07:01:37.811Z,99382.00
2022-12-04T07:04:09.615Z,99389.44
2022-12-04T07:06:44.392Z,99390.25
2022-12-04T07:09:17.924Z,99394.41
2022-12-04T07:11:49.539Z,99406.94
2022-12-04T07:14:21.158Z,99399.06
2022-12-04T07:16:52.814Z,99400.75
2022-12-04T07:19:24.438Z,99394.53
2022-12-04T07:21:58.004Z,99395.09
2022-12-04T07:24:29.684Z,99401.16
2022-12-04T07:27:01.676Z,99398.97
2022-12-04T07:29:33.296Z,99399.66
2022-12-04T07:32:05.269Z,99405.31
2022-12-04T07:34:37.316Z,99401.75
2022-12-04T07:37:12.275Z,99406.16
2022-12-04T07:39:43.931Z,99402.56
2022-12-04T07:42:21.008Z,99405.59
2022-12-04T07:44:55.513Z,99410.72
2022-12-04T07:47:27.129Z,99408.94
2022-12-04T07:49:58.859Z,99418.16
2022-12-04T07:52:30.971Z,99403.41
2022-12-04T07:55:02.674Z,99411.25
2022-12-04T07:57:34.371Z,99413.88
2022-12-04T08:00:06.716Z,99401.75
2022-12-04T08:02:43.424Z,99410.44
2022-12-04T08:05:15.029Z,99400.66
2022-12-04T08:07:46.623Z,99400.53
2022-12-04T08:10:18.296Z,99405.59
2022-12-04T08:12:49.955Z,99412.38
2022-12-04T08:15:21.557Z,99418.72
2022-12-04T08:17:55.142Z,99413.22
2022-12-04T08:20:26.695Z,99411.41
2022-12-04T08:22:58.245Z,99415.00
2022-12-04T08:25:29.879Z,99394.88
2022-12-04T08:28:01.474Z,99401.91
2022-12-04T08:30:36.499Z,99407.53
2022-12-04T08:33:08.117Z,99408.38
2022-12-04T08:35:39.678Z,99407.03
2022-12-04T08:38:11.274Z,99396.97
2022-12-04T08:40:42.884Z,99404.66
2022-12-04T08:43:14.462Z,99403.56
2022-12-04T08:45:55.261Z,99399.69
2022-12-04T08:48:28.066Z,99404.41
2022-12-04T08:51:00.221Z,99405.94
2022-12-04T08:53:32.409Z,99396.00
2022-12-04T08:56:04.401Z,99396.28
2022-12-04T08:58:36.386Z,99397.09
2022-12-04T09:01:10.623Z,99402.19
2022-12-04T09:03:43.027Z,99404.81
2022-12-04T09:06:16.097Z,99405.25
2022-12-04T09:08:48.071Z,99395.97
2022-12-04T09:11:22.043Z,99397.78
2022-12-04T09:13:54.070Z,99402.88
2022-12-04T09:16:26.356Z,99393.66
2022-12-04T09:18:59.067Z,99391.44
2022-12-04T09:21:30.731Z,99400.25
2022-12-04T09:24:02.385Z,99394.06
2022-12-04T09:26:33.986Z,99386.06
2022-12-04T09:29:05.897Z,99381.47
2022-12-04T09:31:37.961Z,99383.84
2022-12-04T09:34:09.625Z,99376.50
2022-12-04T09:36:41.178Z,99376.25
2022-12-04T09:39:12.785Z,99378.88
2022-12-04T09:41:54.837Z,99378.44
2022-12-04T09:44:26.361Z,99380.75
2022-12-04T09:47:04.809Z,99379.78
2022-12-04T09:49:49.876Z,99376.50
2022-12-04T09:52:26.018Z,99378.97
2022-12-04T09:55:00.163Z,99375.13
2022-12-04T09:57:38.964Z,99380.06
2022-12-04T10:00:14.983Z,99382.69
2022-12-04T10:02:53.583Z,99379.09
2022-12-04T10:05:54.166Z,99371.09
2022-12-04T10:08:34.672Z,99366.69
2022-12-04T10:11:46.331Z,99366.81
2022-12-04T10:14:46.168Z,99364.47
2022-12-04T10:17:26.525Z,99366.25
2022-12-04T10:20:04.442Z,99367.09
2022-12-04T10:22:43.750Z,99365.97
2022-12-04T10:25:22.522Z,99363.22
2022-12-04T10:27:57.894Z,99363.75
2022-12-04T10:30:32.355Z,99360.44
2022-12-04T10:33:20.601Z,99352.56
2022-12-04T10:35:54.280Z,99349.94
2022-12-04T10:38:40.536Z,99352.44
2022-12-04T10:41:25.948Z,99348.84
2022-12-04T10:43:57.573Z,99344.81
2022-12-04T10:46:33.442Z,99347.84
2022-12-04T10:49:16.046Z,99347.41
2022-12-04T10:51:47.979Z,99342.41
2022-12-04T10:54:31.089Z,99333.28
2022-12-04T10:57:08.524Z,99337.31
2022-12-04T10:59:55.458Z,99329.84
2022-12-04T11:02:33.933Z,99340.91
2022-12-04T11:05:22.441Z,99335.50
2022-12-04T11:07:55.137Z,99341.44
2022-12-04T11:10:39.482Z,99334.59
2022-12-04T11:13:11.062Z,99329.19
2022-12-04T11:15:54.814Z,99328.22
2022-12-04T11:18:32.389Z,99325.88
2022-12-04T11:21:15.588Z,99326.84
2022-12-04T11:23:52.176Z,99330.84
2022-12-04T11:26:42.169Z,99319.91
2022-12-04T11:29:17.392Z,99312.88
2022-12-04T11:31:52.982Z,99303.59
2022-12-04T11:34:34.305Z,99302.47
2022-12-04T11:37:17.113Z,99302.84
2022-12-04T11:39:49.909Z,99317.78
2022-12-04T11:42:30.370Z,99309.22
2022-12-04T11:45:20.958Z,99305.91
2022-12-04T11:48:03.162Z,99316.81
2022-12-04T11:50:45.586Z,99312.75
2022-12-04T11:53:42.722Z,99315.81
2022-12-04T11:56:14.288Z,99310.69
2022-12-04T11:58:57.976Z,99312.50
2022-12-04T12:02:10.351Z,99307.09
2022-12-04T12:04:47.409Z,99304.47
2022-12-04T12:07:40.958Z,99294.81
2022-12-04T12:10:35.522Z,99298.66
2022-12-04T12:13:50.146Z,99301.44
2022-12-04T12:16:42.628Z,99292.59
2022-12-04T12:19:36.577Z,99291.34
2022-12-04T12:22:27.360Z,99293.97
2022-12-04T12:25:13.445Z,99297.13
2022-12-04T12:28:13.319Z,99293.97
2022-12-04T12:31:22.598Z,99284.97
2022-12-04T12:34:32.218Z,99280.78
2022-12-04T12:37:19.030Z,99271.63
2022-12-04T12:39:59.721Z,99277.56
2022-12-04T12:42:38.793Z,99276.03
2022-12-04T12:45:16.178Z,99272.06
2022-12-04T12:47:52.229Z,99274.09
2022-12-04T12:50:42.649Z,99275.66
2022-12-04T12:53:22.495Z,99259.78
2022-12-04T12:55:58.163Z,99269.75
2022-12-04T12:58:36.484Z,99270.16
2022-12-04T13:01:19.814Z,99274.31
2022-12-04T13:04:02.902Z,99265.59
2022-12-04T13:06:39.064Z,99274.06
2022-12-04T13:09:25.779Z,99267.31
2022-12-04T13:12:03.354Z,99266.50
2022-12-04T13:14:35.279Z,99260.03
2022-12-04T13:17:31.880Z,99259.50
2022-12-04T13:20:10.497Z,99252.59
2022-12-04T13:22:57.528Z,99254.25
2022-12-04T13:26:01.607Z,99263.25
2022-12-04T13:28:58.313Z,99249.13
2022-12-04T13:31:51.251Z,99251.75
2022-12-04T13:34:28.888Z,99253.56
2022-12-04T13:37:00.403Z,99257.69
2022-12-04T13:40:09.184Z,99253.28
2022-12-04T13:42:42.300Z,99268.72
2022-12-04T13:45:35.028Z,99258.22
2022-12-04T13:48:09.858Z,99262.94
2022-12-04T13:50:41.358Z,99262.94
2022-12-04T13:53:34.009Z,99262.81
2022-12-04T13:56:10.317Z,99257.25
2022-12-04T13:58:43.966Z,99255.19
2022-12-04T14:01:31.142Z,99245.66
2022-12-04T14:04:04.864Z,99235.16
2022-12-04T14:06:43.686Z,99236.41
2022-12-04T14:09:28.544Z,99241.25
2022-12-04T14:12:04.028Z,99237.97
2022-12-04T14:14:45.481Z,99236.47
2022-12-04T14:17:32.078Z,99240.88
2022-12-04T14:20:28.837Z,99235.50
2022-12-04T14:23:33.713Z,99246.25
2022-12-04T14:26:05.869Z,99252.06
2022-12-04T14:28:42.847Z,99251.81
2022-12-04T14:31:37.569Z,99258.03
2022-12-04T14:34:23.806Z,99244.41
2022-12-04T14:36:57.800Z,99250.59
2022-12-04T14:39:43.559Z,99246.06
2022-12-04T14:42:18.052Z,99244.53
2022-12-04T14:44:57.133Z,99247.47
2022-12-04T14:47:34.782Z,99239.41
2022-12-04T14:50:15.236Z,99234.88
2022-12-04T14:53:05.366Z,99243.13
2022-12-04T14:55:51.163Z,99235.84
2022-12-04T14:58:29.921Z,99238.19
2022-12-04T15:01:26.895Z,99241.91
2022-12-04T15:04:10.420Z,99244.25
2022-12-04T15:06:44.695Z,99243.69
2022-12-04T15:09:41.395Z,99244.53
2022-12-04T15:12:37.043Z,99237.63
2022-12-04T15:15:22.086Z,99239.88
2022-12-04T15:17:59.821Z,99242.50
2022-12-04T15:20:41.159Z,99242.34
2022-12-04T15:23:18.867Z,99244.28
2022-12-04T15:25:53.293Z,99247.75
2022-12-04T15:29:00.006Z,99241.53
2022-12-04T15:31:40.773Z,99243.31
2022-12-04T15:34:22.330Z,99237.38
2022-12-04T15:36:57.774Z,99240.00
2022-12-04T15:39:32.292Z,99227.44
2022-12-04T15:42:20.182Z,99227.56
2022-12-04T15:45:01.018Z,99232.13
2022-12-04T15:47:38.681Z,99223.03
2022-12-04T15:50:13.286Z,99228.16
2022-12-04T15:53:12.583Z,99221.25
2022-12-04T15:56:17.105Z,99216.13
2022-12-04T15:58:55.691Z,99213.69
2022-12-04T16:01:37.149Z,99209.78
2022-12-04T16:04:20.694Z,99209.28
2022-12-04T16:06:53.800Z,99215.88
2022-12-04T16:09:27.243Z,99211.91
2022-12-04T16:12:03.265Z,99211.91
2022-12-04T16:14:34.891Z,99205.97
2022-12-04T16:17:08.197Z,99210.09
2022-12-04T16:19:42.023Z,99211.16
2022-12-04T16:22:20.821Z,99218.94
2022-12-04T16:24:54.491Z,99217.22
2022-12-04T16:27:26.569Z,99218.75
2022-12-04T16:29:58.301Z,99221.38
2022-12-04T16:32:32.425Z,99220.59
2022-12-04T16:35:04.231Z,99229.44
2022-12-04T16:37:35.787Z,99228.88
2022-12-04T16:40:09.117Z,99220.19
2022-12-04T16:42:42.178Z,99218.38
2022-12-04T16:45:29.727Z,99225.16
2022-12-04T16:48:01.463Z,99226.94
2022-12-04T16:50:33.161Z,99228.22
2022-12-04T16:53:04.888Z,99227.91
2022-12-04T16:55:39.100Z,99220.88
2022-12-04T16:58:10.708Z,99228.34
2022-12-04T17:00:44.777Z,99224.75
2022-12-04T17:03:21.858Z,99231.22
2022-12-04T17:05:53.870Z,99226.56
2022-12-04T17:08:28.790Z,99223.09
2022-12-04T17:11:00.378Z,99211.78
2022-12-04T17:13:32.032Z,99214.28
2022-12-04T17:16:03.746Z,99205.44
2022-12-04T17:18:36.413Z,99208.19
2022-12-04T17:21:09.649Z,99213.13
2022-12-04T17:23:41.567Z,99202.50
2022-12-04T17:26:14.974Z,99208.56
2022-12-04T17:28:49.851Z,99200.97
2022-12-04T17:31:24.741Z,99202.94
2022-12-04T17:33:57.023Z,99203.78
2022-12-04T17:36:28.785Z,99203.19
2022-12-04T17:39:03.745Z,99200.84
2022-12-04T17:41:35.449Z,99206.91
2022-12-04T17:44:07.170Z,99210.50
2022-12-04T17:46:38.814Z,99213.31
2022-12-04T17:49:10.641Z,99214.66
2022-12-04T17:51:42.428Z,99216.84
2022-12-04T17:54:17.064Z,99217.66
2022-12-04T17:56:53.396Z,99217.81
2022-12-04T17:59:28.335Z,99220.28
2022-12-04T18:02:00.047Z,99215.47
2022-12-04T18:04:31.645Z,99220.72
2022-12-04T18:07:03.691Z,99222.38
2022-12-04T18:09:35.556Z,99220.88
2022-12-04T18:12:07.327Z,99218.25
2022-12-04T18:14:41.350Z,99222.78
2022-12-04T18:17:12.927Z,99223.09
2022-12-04T18:19:44.498Z,99224.75
2022-12-04T18:22:16.162Z,99219.22
2022-12-04T18:24:47.964Z,99218.97
2022-12-04T18:27:19.584Z,99218.00
2022-12-04T18:29:51.235Z,99218.81
2022-12-04T18:32:23.271Z,99214.84
2022-12-04T18:34:54.858Z,99216.63
2022-12-04T18:37:26.516Z,99215.22
2022-12-04T18:40:01.105Z,99215.75
2022-12-04T18:42:36.372Z,99220.47
2022-12-04T18:45:08.648Z,99218.69
2022-12-04T18:47:40.313Z,99217.41
2022-12-04T18:50:14.840Z,99213.44
2022-12-04T18:52:49.195Z,99221.16
2022-12-04T18:55:24.699Z,99220.19
2022-12-04T18:57:56.356Z,99219.50
2022-12-04T19:00:27.975Z,99222.28
2022-12-04T19:03:04.654Z,99229.44
2022-12-04T19:05:46.906Z,99226.56
2022-12-04T19:08:18.691Z,99224.91
2022-12-04T19:10:50.406Z,99223.78
2022-12-04T19:13:22.054Z,99225.41
2022-12-04T19:15:53.645Z,99227.22
2022-12-04T19:18:25.361Z,99231.66
2022-12-04T19:20:57.430Z,99236.50
2022-12-04T19:23:29.125Z,99231.03
2022-12-04T19:26:02.504Z,99238.72
2022-12-04T19:28:34.180Z,99231.94
2022-12-04T19:31:17.596Z,99223.38
2022-12-04T19:33:49.638Z,99230.72
2022-12-04T19:36:21.462Z,99237.22
2022-12-04T19:38:55.961Z,99241.50
2022-12-04T19:41:34.401Z,99239.56
2022-12-04T19:44:26.302Z,99241.22
2022-12-04T19:46:57.718Z,99235.97
2022-12-04T19:49:29.418Z,99232.50
2022-12-04T19:52:01.080Z,99228.41
2022-12-04T19:54:32.909Z,99236.78
2022-12-04T19:57:04.545Z,99236.09
2022-12-04T19:59:39.533Z,99239.16
2022-12-04T20:02:14.415Z,99243.59
2022-12-04T20:04:46.111Z,99245.25
2022-12-04T20:07:19.734Z,99242.34
2022-12-04T20:09:53.682Z,99243.50
2022-12-04T20:12:25.261Z,99242.50
2022-12-04T20:14:57.500Z,99251.34
2022-12-04T20:17:29.164Z,99249.53
2022-12-04T20:20:01.022Z,99241.66
2022-12-04T20:22:32.598Z,99246.78
2022-12-04T20:25:04.455Z,99244.00
2022-12-04T20:27:36.543Z,99245.63
2022-12-04T20:30:08.868Z,99237.22
2022-12-04T20:32:41.637Z,99234.63
2022-12-04T20:35:13.362Z,99228.53
2022-12-04T20:37:44.960Z,99229.50
2022-12-04T20:40:16.717Z,99223.72
2022-12-04T20:42:48.311Z,99224.53
2022-12-04T20:45:20.437Z,99227.97
2022-12-04T20:47:52.114Z,99227.16
2022-12-04T20:50:24.400Z,99225.66
2022-12-04T20:52:56.012Z,99227.16
2022-12-04T20:55:27.614Z,99224.69
2022-12-04T20:57:59.644Z,99222.47
2022-12-04T21:00:31.977Z,99228.53
2022-12-04T21:03:03.740Z,99226.88
2022-12-04T21:05:35.374Z,99222.16
2022-12-04T21:08:08.399Z,99223.28
2022-12-04T21:10:40.072Z,99218.19
2022-12-04T21:13:30.222Z,99217.66
2022-12-04T21:16:01.932Z,99222.47
2022-12-04T21:18:35.998Z,99223.28
2022-12-04T21:21:07.665Z,99229.19
2022-12-04T21:23:39.258Z,99228.78
2022-12-04T21:26:10.826Z,99230.97
2022-12-04T21:28:43.033Z,99226.16
2022-12-04T21:31:14.971Z,99232.25
2022-12-04T21:33:46.655Z,99223.81
2022-12-04T21:36:18.569Z,99227.97
2022-12-04T21:38:50.169Z,99233.88
2022-12-04T21:41:41.214Z,99230.59
2022-12-04T21:44:16.973Z,99220.75
2022-12-04T21:46:49.629Z,99219.78
2022-12-04T21:49:21.325Z,99226.69
2022-12-04T21:51:57.777Z,99219.25
2022-12-04T21:54:30.292Z,99219.25
2022-12-04T21:57:04.015Z,99229.91
2022-12-04T21:59:35.662Z,99222.72
2022-12-04T22:02:07.634Z,99220.53
2022-12-04T22:04:39.507Z,99217.09
2022-12-04T22:07:11.662Z,99210.56
2022-12-04T22:09:43.321Z,99220.53
2022-12-04T22:12:41.325Z,99214.97
2022-12-04T22:15:07.200Z,99205.38
2022-12-04T22:17:38.902Z,99206.16
2022-12-04T22:20:10.702Z,99203.28
2022-12-04T22:22:42.332Z,99205.22
2022-12-04T22:25:14.688Z,99205.06
2022-12-04T22:27:46.276Z,99209.22
2022-12-04T22:30:18.209Z,99209.03
2022-12-04T22:32:50.035Z,99219.50
2022-12-04T22:35:21.641Z,99221.88
2022-12-04T22:37:56.188Z,99215.13
2022-12-04T22:40:27.758Z,99212.34
2022-12-04T22:42:59.391Z,99214.03
2022-12-04T22:45:30.996Z,99218.44
2022-12-04T22:48:03.692Z,99211.84
2022-12-04T22:50:35.315Z,99219.53
2022-12-04T22:53:06.909Z,99217.91
2022-12-04T22:55:38.462Z,99214.97
2022-12-04T22:58:10.065Z,99219.13
2022-12-04T23:00:41.918Z,99211.25
2022-12-04T23:03:14.227Z,99216.50
2022-12-04T23:05:45.833Z,99214.97
2022-12-04T23:08:17.720Z,99205.19
2022-12-04T23:10:49.300Z,99208.09
2022-12-04T23:13:21.129Z,99204.50
2022-12-04T23:15:52.788Z,99211.00
2022-12-04T23:18:24.593Z,99209.88
2022-12-04T23:21:10.659Z,99217.09
2022-12-04T23:23:44.072Z,99215.94
2022-12-04T23:26:19.108Z,99215.69
2022-12-04T23:28:51.143Z,99218.56
2022-12-04T23:31:23.050Z,99217.72
2022-12-04T23:33:54.785Z,99215.38
2022-12-04T23:36:26.671Z,99220.63
2022-12-04T23:38:58.500Z,99217.34
2022-12-04T23:41:33.598Z,99224.22
2022-12-04T23:44:05.388Z,99219.66
2022-12-04T23:46:37.076Z,99219.78
2022-12-04T23:49:08.692Z,99225.41
2022-12-04T23:51:40.334Z,99220.91
2022-12-04T23:54:11.929Z,99207.81
2022-12-04T23:56:44.151Z,99216.34
2022-12-04T23:59:18.848Z,99214.41
